createdAt,value
2023-07-08T00:00:55.032Z,45.40
2023-07-08T00:03:22.056Z,45.21
2023-07-08T00:05:54.335Z,45.12
2023-07-08T00:08:22.060Z,44.62
2023-07-08T00:10:48.921Z,44.98
2023-07-08T00:13:15.653Z,44.31
2023-07-08T00:15:42.511Z,44.22
2023-07-08T00:18:15.316Z,44.51
2023-07-08T00:20:46.348Z,44.98
2023-07-08T00:23:12.998Z,45.49
2023-07-08T00:25:40.400Z,45.27
2023-07-08T00:28:25.353Z,44.76
2023-07-08T00:30:52.094Z,44.76
2023-07-08T00:33:18.824Z,45.47
2023-07-08T00:35:46.938Z,45.51
2023-07-08T00:38:28.589Z,45.89
2023-07-08T00:40:58.352Z,46.37
2023-07-08T00:43:37.210Z,46.44
2023-07-08T00:46:12.807Z,45.48
2023-07-08T00:48:41.824Z,45.64
2023-07-08T00:51:11.199Z,45.97
2023-07-08T00:53:37.936Z,46.10
2023-07-08T00:56:33.095Z,45.91
2023-07-08T00:59:20.481Z,46.69
2023-07-08T01:01:49.483Z,46.57
2023-07-08T01:04:23.563Z,44.43
2023-07-08T01:06:55.705Z,44.01
2023-07-08T01:09:22.511Z,44.74
2023-07-08T01:11:49.206Z,46.06
2023-07-08T01:14:22.751Z,46.14
2023-07-08T01:16:51.140Z,46.05
2023-07-08T01:19:22.572Z,45.30
2023-07-08T01:21:55.260Z,45.24
2023-07-08T01:24:21.964Z,45.89
2023-07-08T01:26:49.528Z,45.66
2023-07-08T01:29:16.974Z,45.33
2023-07-08T01:31:44.190Z,45.59
2023-07-08T01:34:12.249Z,44.91
2023-07-08T01:36:45.783Z,45.55
2023-07-08T01:39:17.235Z,45.41
2023-07-08T01:41:44.521Z,45.99
2023-07-08T01:44:33.541Z,45.75
2023-07-08T01:47:08.889Z,45.66
2023-07-08T01:49:40.491Z,45.63
2023-07-08T01:52:09.677Z,46.48
2023-07-08T01:54:36.340Z,45.66
2023-07-08T01:57:03.093Z,46.37
2023-07-08T01:59:29.716Z,47.22
2023-07-08T02:01:56.760Z,47.17
2023-07-08T02:04:25.964Z,47.96
2023-07-08T02:06:58.044Z,47.51
2023-07-08T02:09:27.043Z,46.69
2023-07-08T02:11:54.813Z,47.27
2023-07-08T02:14:21.947Z,47.31
2023-07-08T02:16:48.888Z,46.84
2023-07-08T02:19:15.595Z,44.98
2023-07-08T02:21:42.285Z,46.52
2023-07-08T02:24:09.000Z,45.76
2023-07-08T02:26:35.648Z,46.42
2023-07-08T02:29:03.246Z,46.66
2023-07-08T02:31:29.946Z,46.83
2023-07-08T02:33:56.691Z,47.41
2023-07-08T02:36:23.358Z,46.85
2023-07-08T02:38:50.074Z,46.62
2023-07-08T02:41:17.188Z,46.09
2023-07-08T02:43:43.859Z,46.06
2023-07-08T02:46:10.567Z,46.84
2023-07-08T02:48:37.468Z,47.50
2023-07-08T02:51:06.341Z,48.02
2023-07-08T02:53:33.359Z,48.29
2023-07-08T02:56:00.122Z,47.94
2023-07-08T02:58:26.862Z,48.59
2023-07-08T03:00:55.142Z,49.49
2023-07-08T03:03:22.487Z,50.04
2023-07-08T03:06:00.572Z,52.74
2023-07-08T03:08:30.880Z,54.47
2023-07-08T03:11:03.780Z,52.39
2023-07-08T03:13:34.021Z,51.13
2023-07-08T03:16:02.278Z,50.76
2023-07-08T03:18:30.654Z,47.02
2023-07-08T03:20:58.873Z,57.17
2023-07-08T03:23:26.833Z,58.44
2023-07-08T03:25:54.257Z,63.80
2023-07-08T03:28:21.357Z,62.08
2023-07-08T03:30:54.177Z,65.52
2023-07-08T03:33:22.176Z,66.14
2023-07-08T03:35:49.889Z,68.13
2023-07-08T03:38:16.892Z,70.34
2023-07-08T03:40:43.666Z,69.97
2023-07-08T03:43:10.303Z,70.62
2023-07-08T03:45:36.998Z,71.47
2023-07-08T03:48:03.855Z,72.66
2023-07-08T03:50:30.653Z,72.56
2023-07-08T03:52:57.864Z,73.44
2023-07-08T03:55:24.527Z,72.58
2023-07-08T03:57:51.216Z,72.88
2023-07-08T04:00:17.852Z,72.74
2023-07-08T04:02:46.354Z,73.71
2023-07-08T04:05:23.959Z,74.21
2023-07-08T04:07:51.149Z,74.87
2023-07-08T04:10:17.966Z,74.20
2023-07-08T04:12:44.760Z,75.32
2023-07-08T04:15:13.172Z,76.59
2023-07-08T04:17:46.165Z,77.40
2023-07-08T04:20:16.862Z,76.46
2023-07-08T04:22:43.568Z,76.57
2023-07-08T04:25:13.302Z,75.66
2023-07-08T04:27:40.413Z,75.87
2023-07-08T04:30:08.505Z,74.20
2023-07-08T04:32:35.206Z,72.82
2023-07-08T04:35:01.922Z,70.88
2023-07-08T04:37:28.631Z,71.41
2023-07-08T04:39:56.822Z,72.72
2023-07-08T04:42:23.573Z,72.19
2023-07-08T04:44:50.418Z,74.39
2023-07-08T04:47:17.061Z,74.30
2023-07-08T04:49:43.763Z,74.58
2023-07-08T04:52:11.190Z,74.71
2023-07-08T04:54:37.886Z,74.24
2023-07-08T04:57:06.661Z,74.20
2023-07-08T04:59:33.390Z,75.36
2023-07-08T05:02:00.140Z,75.43
2023-07-08T05:04:26.792Z,76.19
2023-07-08T05:06:53.644Z,76.88
2023-07-08T05:09:20.367Z,75.88
2023-07-08T05:11:47.115Z,76.00
2023-07-08T05:14:14.446Z,75.84
2023-07-08T05:16:41.304Z,73.94
2023-07-08T05:19:08.036Z,72.87
2023-07-08T05:21:34.750Z,73.02
2023-07-08T05:24:05.782Z,73.99
2023-07-08T05:26:33.450Z,73.62
2023-07-08T05:29:00.226Z,73.00
2023-07-08T05:31:38.044Z,73.12
2023-07-08T05:34:12.533Z,73.83
2023-07-08T05:36:39.173Z,74.04
2023-07-08T05:39:06.947Z,74.08
2023-07-08T05:41:33.673Z,74.26
2023-07-08T05:44:00.400Z,73.83
2023-07-08T05:46:27.120Z,74.53
2023-07-08T05:48:53.802Z,74.29
2023-07-08T05:51:20.486Z,73.99
2023-07-08T05:53:47.120Z,73.89
2023-07-08T05:56:14.047Z,73.79
2023-07-08T05:58:40.689Z,72.47
2023-07-08T06:01:07.588Z,72.27
2023-07-08T06:03:34.565Z,72.41
2023-07-08T06:06:01.264Z,70.71
2023-07-08T06:08:27.915Z,70.58
2023-07-08T06:10:54.570Z,70.85
2023-07-08T06:13:21.327Z,70.24
2023-07-08T06:15:48.141Z,70.13
2023-07-08T06:18:14.841Z,70.04
2023-07-08T06:20:41.501Z,69.39
2023-07-08T06:23:08.259Z,68.20
2023-07-08T06:25:35.025Z,67.78
2023-07-08T06:28:01.654Z,67.90
2023-07-08T06:30:28.442Z,67.06
2023-07-08T06:32:55.129Z,66.67
2023-07-08T06:35:21.820Z,66.92
2023-07-08T06:37:48.516Z,66.94
2023-07-08T06:40:15.354Z,67.12
2023-07-08T06:42:41.970Z,66.89
2023-07-08T06:45:09.121Z,66.26
2023-07-08T06:47:35.794Z,66.25
2023-07-08T06:50:02.476Z,66.52
2023-07-08T06:52:29.369Z,66.10
2023-07-08T06:54:56.022Z,65.27
2023-07-08T06:57:22.689Z,65.13
2023-07-08T06:59:49.329Z,65.59
2023-07-08T07:02:16.019Z,65.34
2023-07-08T07:04:42.678Z,65.15
2023-07-08T07:07:10.737Z,65.00
2023-07-08T07:09:37.453Z,65.11
2023-07-08T07:12:07.549Z,64.49
2023-07-08T07:17:08.761Z,64.86
2023-07-08T07:19:36.139Z,66.19
2023-07-08T07:22:03.770Z,65.79
2023-07-08T07:24:30.540Z,65.43
2023-07-08T07:26:57.260Z,65.24
2023-07-08T07:29:24.649Z,65.20
2023-07-08T07:31:51.396Z,65.19
2023-07-08T07:34:18.473Z,65.72
2023-07-08T07:36:45.098Z,65.30
2023-07-08T07:39:11.727Z,65.94
2023-07-08T07:41:38.383Z,66.07
2023-07-08T07:44:05.036Z,67.57
2023-07-08T07:46:31.830Z,68.34
2023-07-08T07:48:58.497Z,69.41
2023-07-08T07:51:25.136Z,69.14
2023-07-08T07:53:51.780Z,69.04
2023-07-08T07:56:18.457Z,68.36
2023-07-08T07:58:45.125Z,68.50
2023-07-08T08:01:11.765Z,68.76
2023-07-08T08:03:38.481Z,68.35
2023-07-08T08:06:05.228Z,67.62
2023-07-08T08:08:31.910Z,67.78
2023-07-08T08:10:58.604Z,66.96
2023-07-08T08:13:25.312Z,66.95
2023-07-08T08:15:58.503Z,66.35
2023-07-08T08:18:27.048Z,66.15
2023-07-08T08:20:55.094Z,64.88
2023-07-08T08:23:22.097Z,63.43
2023-07-08T08:25:48.935Z,63.53
2023-07-08T08:28:15.555Z,63.12
2023-07-08T08:30:42.341Z,62.52
2023-07-08T08:33:09.077Z,61.95
2023-07-08T08:35:35.821Z,61.24
2023-07-08T08:38:03.017Z,61.83
2023-07-08T08:40:32.013Z,62.62
2023-07-08T08:43:12.712Z,61.92
2023-07-08T08:46:05.228Z,62.24
2023-07-08T08:48:40.502Z,60.82
2023-07-08T08:51:14.522Z,59.09
2023-07-08T08:53:41.648Z,58.67
2023-07-08T08:56:23.321Z,55.49
2023-07-08T08:59:03.393Z,53.06
2023-07-08T09:01:32.982Z,51.78
2023-07-08T09:04:16.190Z,53.33
2023-07-08T09:06:43.492Z,51.48
2023-07-08T09:09:20.112Z,51.27
2023-07-08T09:12:02.097Z,51.98
2023-07-08T09:14:30.889Z,49.89
2023-07-08T09:17:16.179Z,48.12
2023-07-08T09:19:50.616Z,48.49
2023-07-08T09:22:41.715Z,47.21
2023-07-08T09:25:11.361Z,44.40
2023-07-08T09:27:38.053Z,43.88
2023-07-08T09:30:05.279Z,43.04
2023-07-08T09:32:32.029Z,43.65
2023-07-08T09:35:08.723Z,43.97
2023-07-08T09:37:38.382Z,46.17
2023-07-08T09:40:18.585Z,44.77
2023-07-08T09:42:52.186Z,46.98
2023-07-08T09:45:25.132Z,47.08
2023-07-08T09:47:59.290Z,48.39
2023-07-08T09:50:29.253Z,50.00
2023-07-08T09:52:58.843Z,50.04
2023-07-08T09:55:25.697Z,49.32
2023-07-08T09:57:55.014Z,50.71
2023-07-08T10:00:34.354Z,52.14
2023-07-08T10:03:21.647Z,51.02
2023-07-08T10:05:50.169Z,51.33
2023-07-08T10:08:24.890Z,51.47
2023-07-08T10:11:02.666Z,51.72
2023-07-08T10:13:42.399Z,51.49
2023-07-08T10:16:15.285Z,52.84
2023-07-08T10:18:42.227Z,52.48
2023-07-08T10:21:45.892Z,53.60
2023-07-08T10:24:49.560Z,52.69
2023-07-08T10:27:34.817Z,54.54
2023-07-08T10:30:07.498Z,54.48
2023-07-08T10:32:34.489Z,52.95
2023-07-08T10:35:21.870Z,54.38
2023-07-08T10:38:25.710Z,52.54
2023-07-08T10:41:06.201Z,53.33
2023-07-08T10:43:57.605Z,52.59
2023-07-08T10:46:45.495Z,56.74
2023-07-08T10:49:37.862Z,53.92
2023-07-08T10:52:40.963Z,54.00
2023-07-08T10:55:27.635Z,56.18
2023-07-08T10:58:31.086Z,54.54
2023-07-08T11:01:30.151Z,54.17
2023-07-08T11:04:06.110Z,54.31
2023-07-08T11:06:51.899Z,56.56
2023-07-08T11:09:54.014Z,54.04
2023-07-08T11:12:34.389Z,54.27
2023-07-08T11:15:51.850Z,55.92
2023-07-08T11:19:03.162Z,54.48
2023-07-08T11:21:38.629Z,54.70
2023-07-08T11:24:23.334Z,56.22
2023-07-08T11:27:15.728Z,54.71
2023-07-08T11:29:59.854Z,53.82
2023-07-08T11:32:32.975Z,54.09
2023-07-08T11:35:05.143Z,54.44
2023-07-08T11:37:34.044Z,54.73
2023-07-08T11:40:06.401Z,54.81
2023-07-08T11:42:41.846Z,58.24
2023-07-08T11:45:18.030Z,55.05
2023-07-08T11:47:50.566Z,54.70
2023-07-08T11:50:30.499Z,54.84
2023-07-08T11:53:09.204Z,55.20
2023-07-08T11:55:45.678Z,56.61
2023-07-08T11:58:21.115Z,56.40
2023-07-08T12:01:00.016Z,55.67
2023-07-08T12:03:38.281Z,57.08
2023-07-08T12:06:29.575Z,55.21
2023-07-08T12:09:10.075Z,56.49
2023-07-08T12:11:44.422Z,55.10
2023-07-08T12:14:11.935Z,55.47
2023-07-08T12:16:38.887Z,55.83
2023-07-08T12:19:11.141Z,57.23
2023-07-08T12:21:38.349Z,57.82
2023-07-08T12:24:07.571Z,55.25
2023-07-08T12:26:35.142Z,56.10
2023-07-08T12:29:02.063Z,57.82
2023-07-08T12:31:30.186Z,56.22
2023-07-08T12:33:58.672Z,54.74
2023-07-08T12:36:31.451Z,54.90
2023-07-08T12:39:00.717Z,55.99
2023-07-08T12:41:34.141Z,56.38
2023-07-08T12:44:02.987Z,58.54
2023-07-08T12:46:30.573Z,55.22
2023-07-08T12:48:57.348Z,54.74
2023-07-08T12:51:27.294Z,57.50
2023-07-08T12:53:55.169Z,54.99
2023-07-08T12:56:25.098Z,55.09
2023-07-08T12:58:56.540Z,55.58
2023-07-08T13:01:29.510Z,55.02
2023-07-08T13:04:06.420Z,55.61
2023-07-08T13:06:35.349Z,55.60
2023-07-08T13:09:29.031Z,58.33
2023-07-08T13:11:58.121Z,55.68
2023-07-08T13:14:26.552Z,54.72
2023-07-08T13:16:53.983Z,55.00
2023-07-08T13:19:23.155Z,54.48
2023-07-08T13:21:51.973Z,54.96
2023-07-08T13:24:19.084Z,50.54
2023-07-08T13:26:49.600Z,51.81
2023-07-08T13:29:18.965Z,52.24
2023-07-08T13:31:50.211Z,53.56
2023-07-08T13:34:19.654Z,53.98
2023-07-08T13:36:51.225Z,53.72
2023-07-08T13:39:28.790Z,51.35
2023-07-08T13:41:56.859Z,51.74
2023-07-08T13:44:23.630Z,52.13
2023-07-08T13:46:59.411Z,53.21
2023-07-08T13:49:30.321Z,52.69
2023-07-08T13:52:19.634Z,52.13
2023-07-08T13:54:54.065Z,52.10
2023-07-08T13:57:24.838Z,51.38
2023-07-08T13:59:51.571Z,51.41
2023-07-08T14:02:24.111Z,52.85
2023-07-08T14:04:53.657Z,52.02
2023-07-08T14:07:24.652Z,52.72
2023-07-08T14:09:51.358Z,50.32
2023-07-08T14:12:18.017Z,48.51
2023-07-08T14:14:44.923Z,48.55
2023-07-08T14:17:20.098Z,49.38
2023-07-08T14:19:46.772Z,49.80
2023-07-08T14:22:13.393Z,50.59
2023-07-08T14:24:40.814Z,47.28
2023-07-08T14:27:11.945Z,50.55
2023-07-08T14:29:39.415Z,49.92
2023-07-08T14:32:13.923Z,49.68
2023-07-08T14:34:42.211Z,48.65
2023-07-08T14:37:15.854Z,50.48
2023-07-08T14:39:42.570Z,48.18
2023-07-08T14:42:13.600Z,47.96
2023-07-08T14:44:43.413Z,49.19
2023-07-08T14:47:15.261Z,48.02
2023-07-08T14:49:41.985Z,47.45
2023-07-08T14:52:09.585Z,46.46
2023-07-08T14:54:36.462Z,45.54
2023-07-08T14:57:06.122Z,45.23
2023-07-08T14:59:36.467Z,47.25
2023-07-08T15:02:19.751Z,45.18
2023-07-08T15:04:46.433Z,45.93
2023-07-08T15:07:13.100Z,44.20
2023-07-08T15:09:39.822Z,44.07
2023-07-08T15:12:11.119Z,44.14
2023-07-08T15:14:38.036Z,44.69
2023-07-08T15:17:13.451Z,43.70
2023-07-08T15:19:40.186Z,46.01
2023-07-08T15:22:07.869Z,45.71
2023-07-08T15:24:34.529Z,44.14
2023-07-08T15:27:04.463Z,43.95
2023-07-08T15:29:31.164Z,44.34
2023-07-08T15:31:57.828Z,43.39
2023-07-08T15:34:24.563Z,41.96
2023-07-08T15:36:51.191Z,43.22
2023-07-08T15:39:17.826Z,44.49
2023-07-08T15:41:45.713Z,41.12
2023-07-08T15:44:15.355Z,42.12
2023-07-08T15:46:48.246Z,42.19
2023-07-08T15:49:25.993Z,42.49
2023-07-08T15:51:52.639Z,40.33
2023-07-08T15:54:20.338Z,40.81
2023-07-08T15:56:54.250Z,40.33
2023-07-08T15:59:29.554Z,40.86
2023-07-08T16:02:02.077Z,41.59
2023-07-08T16:04:35.879Z,38.78
2023-07-08T16:07:02.574Z,39.37
2023-07-08T16:09:29.372Z,38.42
2023-07-08T16:11:56.128Z,39.81
2023-07-08T16:14:25.433Z,39.35
2023-07-08T16:16:54.066Z,39.35
2023-07-08T16:19:20.728Z,39.82
2023-07-08T16:21:47.394Z,40.79
2023-07-08T16:24:14.146Z,40.44
2023-07-08T16:26:41.733Z,39.76
2023-07-08T16:29:16.979Z,39.15
2023-07-08T16:31:43.685Z,39.36
2023-07-08T16:34:12.024Z,38.04
2023-07-08T16:36:38.668Z,38.08
2023-07-08T16:39:05.331Z,38.49
2023-07-08T16:41:37.820Z,38.42
2023-07-08T16:44:15.174Z,40.28
2023-07-08T16:46:42.271Z,40.91
2023-07-08T16:49:09.935Z,40.17
2023-07-08T16:51:37.307Z,38.41
2023-07-08T16:54:14.728Z,38.03
2023-07-08T16:56:41.734Z,39.72
2023-07-08T16:59:08.977Z,40.43
2023-07-08T17:01:35.952Z,40.02
2023-07-08T17:04:03.132Z,38.52
2023-07-08T17:06:29.930Z,38.11
2023-07-08T17:08:56.612Z,37.49
2023-07-08T17:11:23.296Z,36.11
2023-07-08T17:13:49.973Z,36.31
2023-07-08T17:16:25.152Z,38.21
2023-07-08T17:18:56.873Z,36.35
2023-07-08T17:21:23.799Z,36.83
2023-07-08T17:23:53.106Z,35.51
2023-07-08T17:26:19.825Z,36.26
2023-07-08T17:28:46.542Z,36.05
2023-07-08T17:31:21.119Z,36.83
2023-07-08T17:33:57.209Z,37.62
2023-07-08T17:36:30.050Z,37.47
2023-07-08T17:38:56.704Z,36.13
2023-07-08T17:41:23.721Z,36.23
2023-07-08T17:43:50.812Z,36.46
2023-07-08T17:46:22.246Z,37.17
2023-07-08T17:48:49.163Z,36.32
2023-07-08T17:51:17.697Z,37.41
2023-07-08T17:53:44.913Z,37.92
2023-07-08T17:56:20.199Z,39.39
2023-07-08T17:58:50.426Z,39.33
2023-07-08T18:01:17.818Z,38.14
2023-07-08T18:03:44.568Z,37.58
2023-07-08T18:06:11.242Z,37.65
2023-07-08T18:08:37.892Z,37.52
2023-07-08T18:11:04.630Z,38.87
2023-07-08T18:13:36.765Z,36.19
2023-07-08T18:16:03.752Z,37.23
2023-07-08T18:18:30.680Z,37.77
2023-07-08T18:20:57.326Z,38.01
2023-07-08T18:23:27.805Z,38.97
2023-07-08T18:25:54.644Z,42.70
2023-07-08T18:28:21.498Z,41.29
2023-07-08T18:30:53.582Z,44.03
2023-07-08T18:33:20.672Z,41.98
2023-07-08T18:35:48.130Z,42.52
2023-07-08T18:38:15.066Z,43.65
2023-07-08T18:40:45.035Z,43.75
2023-07-08T18:43:20.334Z,44.30
2023-07-08T18:45:48.344Z,43.82
2023-07-08T18:48:18.499Z,44.14
2023-07-08T18:50:51.927Z,45.43
2023-07-08T18:53:19.777Z,46.40
2023-07-08T18:55:47.589Z,45.74
2023-07-08T18:58:19.974Z,45.04
2023-07-08T19:00:48.982Z,46.06
2023-07-08T19:03:31.439Z,46.46
2023-07-08T19:05:58.396Z,46.41
2023-07-08T19:08:25.069Z,46.67
2023-07-08T19:10:53.418Z,46.36
2023-07-08T19:13:22.302Z,47.17
2023-07-08T19:15:49.009Z,46.59
2023-07-08T19:18:15.714Z,47.80
2023-07-08T19:20:46.866Z,47.50
2023-07-08T19:23:15.660Z,47.18
2023-07-08T19:25:42.291Z,46.02
2023-07-08T19:28:09.195Z,45.43
2023-07-08T19:30:39.247Z,46.44
2023-07-08T19:33:11.433Z,47.03
2023-07-08T19:35:43.937Z,47.78
2023-07-08T19:38:15.888Z,46.44
2023-07-08T19:40:49.065Z,46.57
2023-07-08T19:43:15.789Z,46.09
2023-07-08T19:45:42.616Z,45.93
2023-07-08T19:48:11.872Z,46.06
2023-07-08T19:50:39.086Z,46.24
2023-07-08T19:53:06.929Z,46.64
2023-07-08T19:55:35.578Z,46.69
2023-07-08T19:58:02.759Z,46.26
2023-07-08T20:00:41.947Z,46.40
2023-07-08T20:03:12.139Z,46.08
2023-07-08T20:05:39.674Z,45.56
2023-07-08T20:08:18.146Z,46.74
2023-07-08T20:10:44.812Z,46.22
2023-07-08T20:13:13.452Z,45.34
2023-07-08T20:15:40.224Z,44.77
2023-07-08T20:18:11.887Z,44.11
2023-07-08T20:20:38.536Z,44.04
2023-07-08T20:23:05.244Z,44.27
2023-07-08T20:25:32.581Z,44.70
2023-07-08T20:27:59.259Z,44.22
2023-07-08T20:30:28.209Z,43.73
2023-07-08T20:32:57.670Z,43.03
2023-07-08T20:35:29.537Z,42.76
2023-07-08T20:37:56.685Z,42.77
2023-07-08T20:40:28.140Z,42.18
2023-07-08T20:42:55.390Z,42.73
2023-07-08T20:45:29.944Z,42.55
2023-07-08T20:47:58.226Z,42.38
2023-07-08T20:50:26.945Z,42.67
2023-07-08T20:52:54.737Z,42.67
2023-07-08T20:55:23.360Z,42.52
2023-07-08T20:57:51.492Z,41.52
2023-07-08T21:00:28.479Z,42.60
2023-07-08T21:02:56.745Z,43.04
2023-07-08T21:05:24.440Z,43.17
2023-07-08T21:07:53.297Z,43.20
2023-07-08T21:10:22.803Z,43.67
2023-07-08T21:12:49.892Z,43.58
2023-07-08T21:15:19.057Z,44.14
2023-07-08T21:17:45.979Z,43.88
2023-07-08T21:20:21.627Z,43.99
2023-07-08T21:22:49.120Z,43.78
2023-07-08T21:25:17.756Z,42.92
2023-07-08T21:27:46.645Z,43.06
2023-07-08T21:30:22.808Z,43.12
2023-07-08T21:32:53.097Z,43.17
2023-07-08T21:35:21.112Z,42.84
2023-07-08T21:37:51.214Z,42.64
2023-07-08T21:40:28.729Z,42.96
2023-07-08T21:42:56.769Z,42.77
2023-07-08T21:45:33.295Z,43.17
2023-07-08T21:48:00.019Z,43.00
2023-07-08T21:50:29.146Z,43.48
2023-07-08T21:53:01.197Z,43.61
2023-07-08T21:55:27.851Z,43.71
2023-07-08T21:57:55.137Z,43.35
2023-07-08T22:00:22.175Z,42.95
2023-07-08T22:02:51.665Z,43.51
2023-07-08T22:05:21.456Z,42.85
2023-07-08T22:07:49.806Z,43.17
2023-07-08T22:10:20.664Z,44.28
2023-07-08T22:12:49.030Z,44.24
2023-07-08T22:15:28.360Z,44.01
2023-07-08T22:17:58.452Z,43.40
2023-07-08T22:20:27.570Z,43.79
2023-07-08T22:22:54.239Z,44.02
2023-07-08T22:25:28.688Z,44.08
2023-07-08T22:27:55.665Z,44.24
2023-07-08T22:30:23.303Z,44.62
2023-07-08T22:32:51.482Z,43.95
2023-07-08T22:35:22.457Z,44.87
2023-07-08T22:37:49.447Z,44.58
2023-07-08T22:40:16.614Z,44.83
2023-07-08T22:42:44.260Z,45.50
2023-07-08T22:45:14.472Z,45.49
2023-07-08T22:47:41.189Z,45.37
2023-07-08T22:50:08.172Z,46.28
2023-07-08T22:52:37.840Z,47.01
2023-07-08T22:55:31.768Z,47.52
2023-07-08T22:58:01.749Z,48.35
2023-07-08T23:00:30.338Z,48.38
2023-07-08T23:02:57.493Z,48.35
2023-07-08T23:05:29.567Z,48.59
2023-07-08T23:07:56.722Z,48.41
2023-07-08T23:10:23.360Z,48.44
2023-07-08T23:12:50.148Z,49.18
2023-07-08T23:15:16.880Z,48.90
2023-07-08T23:17:45.270Z,48.27
2023-07-08T23:20:17.193Z,48.45
2023-07-08T23:22:45.656Z,48.41
2023-07-08T23:25:14.100Z,47.66
2023-07-08T23:27:42.511Z,47.34
2023-07-08T23:30:27.286Z,47.65
2023-07-08T23:32:54.209Z,47.02
2023-07-08T23:35:21.005Z,47.34
2023-07-08T23:37:48.360Z,47.86
2023-07-08T23:40:17.458Z,47.95
2023-07-08T23:42:47.237Z,48.02
2023-07-08T23:45:14.786Z,48.88
2023-07-08T23:47:44.014Z,48.95
2023-07-08T23:50:19.299Z,48.42
2023-07-08T23:52:46.077Z,48.93
2023-07-08T23:55:12.838Z,49.00
2023-07-08T23:57:40.572Z,48.67
